createdAt,value
2023-05-11T00:01:13.027Z,25.53
2023-05-11T00:03:25.696Z,25.55
2023-05-11T00:05:38.527Z,25.59
2023-05-11T00:07:54.464Z,25.61
2023-05-11T00:10:07.212Z,25.63
2023-05-11T00:12:19.652Z,25.57
2023-05-11T00:14:32.326Z,25.56
2023-05-11T00:16:44.887Z,25.59
2023-05-11T00:18:57.722Z,25.60
2023-05-11T00:21:10.565Z,25.54
2023-05-11T00:23:23.122Z,25.52
2023-05-11T00:25:36.071Z,25.50
2023-05-11T00:27:48.584Z,25.53
2023-05-11T00:30:01.169Z,25.51
2023-05-11T00:32:25.278Z,25.51
2023-05-11T00:34:37.887Z,25.49
2023-05-11T00:36:50.659Z,25.51
2023-05-11T00:39:03.152Z,25.50
2023-05-11T00:41:16.101Z,25.51
2023-05-11T00:43:28.748Z,25.50
2023-05-11T00:45:41.611Z,25.53
2023-05-11T00:47:54.464Z,25.56
2023-05-11T00:50:07.658Z,25.57
2023-05-11T00:52:31.377Z,25.55
2023-05-11T00:54:44.558Z,25.56
2023-05-11T00:56:57.689Z,25.55
2023-05-11T00:59:10.723Z,25.56
2023-05-11T01:01:23.594Z,25.55
2023-05-11T01:03:41.126Z,25.53
2023-05-11T01:06:01.729Z,25.49
2023-05-11T01:08:20.920Z,25.47
2023-05-11T01:10:43.504Z,25.47
2023-05-11T01:13:02.518Z,25.45
2023-05-11T01:15:37.461Z,25.44
2023-05-11T01:17:59.495Z,25.44
2023-05-11T01:20:19.755Z,25.42
2023-05-11T01:22:52.335Z,25.40
2023-05-11T01:25:36.197Z,25.39
2023-05-11T01:28:13.480Z,25.37
2023-05-11T01:30:43.353Z,25.35
2023-05-11T01:32:57.975Z,25.33
2023-05-11T01:35:25.247Z,25.30
2023-05-11T01:37:39.783Z,25.26
2023-05-11T01:39:57.596Z,25.21
2023-05-11T01:42:13.076Z,25.17
2023-05-11T01:44:28.836Z,25.15
2023-05-11T01:46:42.837Z,25.13
2023-05-11T01:49:00.563Z,25.10
2023-05-11T01:51:17.818Z,25.06
2023-05-11T01:53:35.626Z,25.05
2023-05-11T01:55:48.836Z,25.04
2023-05-11T01:58:02.844Z,25.02
2023-05-11T02:00:19.993Z,25.00
2023-05-11T02:02:40.451Z,24.92
2023-05-11T02:04:54.691Z,24.80
2023-05-11T02:07:09.774Z,24.68
2023-05-11T02:09:25.008Z,24.60
2023-05-11T02:11:39.247Z,24.53
2023-05-11T02:13:53.976Z,24.47
2023-05-11T02:16:08.144Z,24.40
2023-05-11T02:18:22.636Z,24.33
2023-05-11T02:20:42.377Z,24.24
2023-05-11T02:23:06.260Z,24.18
2023-05-11T02:25:20.026Z,24.11
2023-05-11T02:27:37.017Z,24.08
2023-05-11T02:29:50.158Z,24.04
2023-05-11T02:32:10.424Z,24.01
2023-05-11T02:34:27.741Z,23.97
2023-05-11T02:36:45.017Z,23.91
2023-05-11T02:39:20.400Z,23.87
2023-05-11T02:41:35.189Z,23.84
2023-05-11T02:43:52.988Z,23.80
2023-05-11T02:46:09.956Z,23.77
2023-05-11T02:48:30.185Z,23.74
2023-05-11T02:50:46.500Z,23.70
2023-05-11T02:53:02.727Z,23.67
2023-05-11T02:55:18.366Z,23.63
2023-05-11T02:57:31.663Z,23.57
2023-05-11T02:59:48.361Z,23.52
2023-05-11T03:02:01.554Z,23.46
2023-05-11T03:04:17.942Z,23.42
2023-05-11T03:06:30.596Z,23.37
2023-05-11T03:08:44.031Z,23.33
2023-05-11T03:11:03.973Z,23.28
2023-05-11T03:13:28.404Z,23.27
2023-05-11T03:15:44.948Z,23.23
2023-05-11T03:17:58.579Z,23.18
2023-05-11T03:20:18.036Z,23.13
2023-05-11T03:22:31.128Z,23.08
2023-05-11T03:24:44.147Z,23.04
2023-05-11T03:26:58.458Z,22.99
2023-05-11T03:29:15.006Z,22.91
2023-05-11T03:31:27.634Z,22.84
2023-05-11T03:33:41.529Z,22.75
2023-05-11T03:36:02.468Z,22.65
2023-05-11T03:38:18.369Z,22.56
2023-05-11T03:40:34.346Z,22.47
2023-05-11T03:42:48.888Z,22.39
2023-05-11T03:45:03.553Z,22.31
2023-05-11T03:47:18.724Z,22.24
2023-05-11T03:49:32.504Z,22.18
2023-05-11T03:51:45.883Z,22.13
2023-05-11T03:53:59.246Z,22.08
2023-05-11T03:56:12.765Z,22.05
2023-05-11T03:58:25.233Z,22.02
2023-05-11T04:00:44.198Z,21.98
2023-05-11T04:03:17.256Z,21.93
2023-05-11T04:05:30.522Z,21.88
2023-05-11T04:07:44.844Z,21.82
2023-05-11T04:09:57.664Z,21.74
2023-05-11T04:12:10.998Z,21.70
2023-05-11T04:14:24.041Z,21.65
2023-05-11T04:16:36.999Z,21.57
2023-05-11T04:18:49.659Z,21.57
2023-05-11T04:21:22.275Z,21.50
2023-05-11T04:23:38.301Z,21.45
2023-05-11T04:25:51.035Z,21.39
2023-05-11T04:28:03.688Z,21.34
2023-05-11T04:30:18.209Z,21.29
2023-05-11T04:32:31.451Z,21.24
2023-05-11T04:34:44.514Z,21.19
2023-05-11T04:37:01.672Z,21.14
2023-05-11T04:39:14.949Z,21.08
2023-05-11T04:41:28.432Z,21.03
2023-05-11T04:43:43.311Z,20.99
2023-05-11T04:45:56.527Z,20.95
2023-05-11T04:48:12.219Z,20.92
2023-05-11T04:50:25.515Z,20.88
2023-05-11T04:52:57.954Z,20.83
2023-05-11T04:55:12.235Z,20.77
2023-05-11T04:57:28.278Z,20.72
2023-05-11T04:59:44.186Z,20.66
2023-05-11T05:02:07.907Z,20.61
2023-05-11T05:04:23.516Z,20.57
2023-05-11T05:06:40.210Z,20.52
2023-05-11T05:08:52.854Z,20.45
2023-05-11T05:11:09.089Z,20.39
2023-05-11T05:13:32.827Z,20.30
2023-05-11T05:15:56.866Z,20.23
2023-05-11T05:18:19.951Z,20.16
2023-05-11T05:20:32.654Z,20.11
2023-05-11T05:22:45.183Z,20.05
2023-05-11T05:25:00.850Z,19.98
2023-05-11T05:27:14.457Z,19.94
2023-05-11T05:29:27.662Z,19.88
2023-05-11T05:31:40.626Z,19.82
2023-05-11T05:33:54.243Z,19.77
2023-05-11T05:36:07.864Z,19.73
2023-05-11T05:38:21.348Z,19.68
2023-05-11T05:40:38.403Z,19.62
2023-05-11T05:42:51.441Z,19.55
2023-05-11T05:45:08.885Z,19.50
2023-05-11T05:47:21.512Z,19.48
2023-05-11T05:49:35.987Z,19.43
2023-05-11T05:51:51.757Z,19.37
2023-05-11T05:54:04.483Z,19.33
2023-05-11T05:56:17.203Z,19.29
2023-05-11T05:58:29.687Z,19.24
2023-05-11T06:00:43.210Z,19.20
2023-05-11T06:02:56.302Z,19.16
2023-05-11T06:05:12.458Z,19.09
2023-05-11T06:07:28.038Z,19.02
2023-05-11T06:09:51.744Z,18.95
2023-05-11T06:12:04.800Z,18.89
2023-05-11T06:14:18.484Z,18.81
2023-05-11T06:16:31.557Z,18.76
2023-05-11T06:18:46.930Z,18.72
2023-05-11T06:21:19.900Z,18.66
2023-05-11T06:23:35.487Z,18.62
2023-05-11T06:25:51.228Z,18.58
2023-05-11T06:28:05.507Z,18.55
2023-05-11T06:30:25.002Z,18.51
2023-05-11T06:32:38.591Z,18.46
2023-05-11T06:34:51.904Z,18.42
2023-05-11T06:37:06.753Z,18.36
2023-05-11T06:39:19.317Z,18.33
2023-05-11T06:41:32.339Z,18.29
2023-05-11T06:43:45.094Z,18.24
2023-05-11T06:46:17.243Z,18.20
2023-05-11T06:48:30.783Z,18.16
2023-05-11T06:50:53.949Z,18.11
2023-05-11T06:53:11.858Z,18.05
2023-05-11T06:55:24.523Z,18.02
2023-05-11T06:57:37.371Z,17.97
2023-05-11T06:59:50.126Z,17.93
2023-05-11T07:02:02.605Z,17.88
2023-05-11T07:04:15.442Z,17.84
2023-05-11T07:06:28.267Z,17.79
2023-05-11T07:08:40.660Z,17.75
2023-05-11T07:10:53.461Z,17.73
2023-05-11T07:13:06.459Z,17.69
2023-05-11T07:15:19.105Z,17.63
2023-05-11T07:17:31.703Z,17.61
2023-05-11T07:19:44.507Z,17.57
2023-05-11T07:21:57.237Z,17.52
2023-05-11T07:24:10.683Z,17.48
2023-05-11T07:26:23.176Z,17.44
2023-05-11T07:28:35.535Z,17.39
2023-05-11T07:30:48.386Z,17.35
2023-05-11T07:33:00.865Z,17.30
2023-05-11T07:35:16.069Z,17.25
2023-05-11T07:37:28.405Z,17.20
2023-05-11T07:39:41.185Z,17.17
2023-05-11T07:41:53.766Z,17.12
2023-05-11T07:44:08.211Z,17.06
2023-05-11T07:46:20.828Z,17.01
2023-05-11T07:48:33.487Z,16.95
2023-05-11T07:50:45.846Z,16.89
2023-05-11T07:53:01.435Z,16.83
2023-05-11T07:55:14.974Z,16.78
2023-05-11T07:57:27.543Z,16.73
2023-05-11T07:59:40.368Z,16.69
2023-05-11T08:01:56.550Z,16.61
2023-05-11T08:04:09.167Z,16.58
2023-05-11T08:06:21.918Z,16.55
2023-05-11T08:08:34.976Z,16.51
2023-05-11T08:10:47.551Z,16.45
2023-05-11T08:13:00.147Z,16.42
2023-05-11T08:15:14.512Z,16.39
2023-05-11T08:17:27.052Z,16.38
2023-05-11T08:19:39.285Z,16.35
2023-05-11T08:21:51.639Z,16.31
2023-05-11T08:24:04.110Z,16.31
2023-05-11T08:26:17.129Z,16.28
2023-05-11T08:28:40.663Z,16.24
2023-05-11T08:31:04.116Z,16.22
2023-05-11T08:33:36.728Z,16.18
2023-05-11T08:35:50.271Z,16.14
2023-05-11T08:38:02.822Z,16.10
2023-05-11T08:40:17.920Z,16.06
2023-05-11T08:42:32.384Z,16.00
2023-05-11T08:44:48.655Z,16.00
2023-05-11T08:47:18.825Z,15.96
2023-05-11T08:49:34.058Z,15.93
2023-05-11T08:51:46.458Z,15.90
2023-05-11T08:54:00.815Z,15.88
2023-05-11T08:56:16.224Z,15.84
2023-05-11T08:58:29.546Z,15.80
2023-05-11T09:00:42.571Z,15.74
2023-05-11T09:02:56.226Z,15.72
2023-05-11T09:05:09.769Z,15.68
2023-05-11T09:07:23.400Z,15.65
2023-05-11T09:09:37.111Z,15.61
2023-05-11T09:11:50.300Z,15.58
2023-05-11T09:14:03.072Z,15.53
2023-05-11T09:16:32.641Z,15.49
2023-05-11T09:19:02.222Z,15.45
2023-05-11T09:21:15.728Z,15.39
2023-05-11T09:23:31.041Z,15.36
2023-05-11T09:25:43.785Z,15.33
2023-05-11T09:27:56.756Z,15.28
2023-05-11T09:30:23.472Z,15.26
2023-05-11T09:32:52.875Z,15.24
2023-05-11T09:35:21.760Z,15.19
2023-05-11T09:37:34.856Z,15.14
2023-05-11T09:42:20.584Z,15.05
2023-05-11T09:44:39.188Z,15.00
2023-05-11T09:46:52.192Z,14.97
2023-05-11T09:49:06.600Z,14.94
2023-05-11T09:51:22.210Z,14.91
2023-05-11T09:53:44.204Z,14.88
2023-05-11T09:55:59.499Z,14.86
2023-05-11T09:58:12.269Z,14.84
2023-05-11T10:03:11.270Z,14.78
2023-05-11T10:05:23.652Z,14.74
2023-05-11T10:07:37.331Z,14.70
2023-05-11T10:09:49.549Z,14.64
2023-05-11T10:12:02.760Z,14.61
2023-05-11T10:14:17.186Z,14.57
2023-05-11T10:16:29.549Z,14.53
2023-05-11T10:18:42.466Z,14.50
2023-05-11T10:20:55.410Z,14.47
2023-05-11T10:23:08.445Z,14.44
2023-05-11T10:25:21.356Z,14.41
2023-05-11T10:31:10.321Z,14.35
2023-05-11T10:33:23.436Z,14.31
2023-05-11T10:35:36.631Z,14.28
2023-05-11T10:37:48.973Z,14.25
2023-05-11T10:40:03.092Z,14.22
2023-05-11T10:42:39.202Z,14.19
2023-05-11T10:45:22.614Z,14.14
2023-05-11T10:48:17.683Z,14.12
2023-05-11T10:50:49.591Z,14.08
2023-05-11T10:53:19.227Z,14.05
2023-05-11T10:55:46.878Z,14.03
2023-05-11T10:58:11.793Z,14.03
2023-05-11T11:00:57.216Z,14.03
2023-05-11T11:03:17.382Z,14.02
2023-05-11T11:05:41.025Z,14.00
2023-05-11T11:08:10.307Z,13.97
2023-05-11T11:10:35.999Z,13.94
2023-05-11T11:13:07.934Z,13.90
2023-05-11T11:15:20.444Z,13.86
2023-05-11T11:17:36.039Z,13.85
2023-05-11T11:19:48.330Z,13.85
2023-05-11T11:22:01.230Z,13.84
2023-05-11T11:24:33.842Z,13.84
2023-05-11T11:26:55.384Z,13.83
2023-05-11T11:29:19.732Z,13.82
2023-05-11T11:31:34.558Z,13.81
2023-05-11T11:33:47.114Z,13.80
2023-05-11T11:36:00.452Z,13.78
2023-05-11T11:38:13.758Z,13.74
2023-05-11T11:40:50.655Z,13.72
2023-05-11T11:43:16.072Z,13.70
2023-05-11T11:45:39.618Z,13.67
2023-05-11T11:48:15.933Z,13.66
2023-05-11T11:50:33.549Z,13.64
2023-05-11T11:52:46.090Z,13.61
2023-05-11T11:55:00.720Z,13.59
2023-05-11T11:57:52.233Z,13.56
2023-05-11T12:00:06.608Z,13.53
2023-05-11T12:02:26.140Z,13.47
2023-05-11T12:04:59.329Z,13.45
2023-05-11T12:07:13.847Z,13.41
2023-05-11T12:09:26.704Z,13.38
2023-05-11T12:11:40.644Z,13.34
2023-05-11T12:13:53.474Z,13.30
2023-05-11T12:16:19.771Z,13.27
2023-05-11T12:18:32.579Z,13.24
2023-05-11T12:20:45.046Z,13.21
2023-05-11T12:22:57.595Z,13.18
2023-05-11T12:25:14.507Z,13.16
2023-05-11T12:27:29.895Z,13.14
2023-05-11T12:29:42.454Z,13.11
2023-05-11T12:31:54.960Z,13.08
2023-05-11T12:34:07.528Z,13.07
2023-05-11T12:36:21.351Z,13.05
2023-05-11T12:38:35.425Z,13.04
2023-05-11T12:40:53.059Z,13.03
2023-05-11T12:43:05.664Z,13.01
2023-05-11T12:45:21.149Z,12.99
2023-05-11T12:47:34.323Z,12.95
2023-05-11T12:49:47.330Z,12.92
2023-05-11T12:52:09.853Z,12.90
2023-05-11T12:54:33.381Z,12.89
2023-05-11T12:56:55.104Z,12.89
2023-05-11T12:59:08.353Z,12.86
2023-05-11T13:01:27.388Z,12.83
2023-05-11T13:03:39.937Z,12.80
2023-05-11T13:05:52.720Z,12.77
2023-05-11T13:08:06.829Z,12.74
2023-05-11T13:10:30.151Z,12.71
2023-05-11T13:12:54.308Z,12.68
2023-05-11T13:15:14.480Z,12.65
2023-05-11T13:17:40.155Z,12.64
2023-05-11T13:19:52.692Z,12.63
2023-05-11T13:22:05.340Z,12.61
2023-05-11T13:24:25.612Z,12.58
2023-05-11T13:26:38.152Z,12.59
2023-05-11T13:28:58.389Z,12.57
2023-05-11T13:31:22.092Z,12.57
2023-05-11T13:33:35.814Z,12.58
2023-05-11T13:35:48.785Z,12.58
2023-05-11T13:38:01.648Z,12.58
2023-05-11T13:40:15.944Z,12.60
2023-05-11T13:42:29.234Z,12.61
2023-05-11T13:44:41.785Z,12.61
2023-05-11T13:46:54.140Z,12.62
2023-05-11T13:49:06.623Z,12.61
2023-05-11T13:51:18.896Z,12.60
2023-05-11T13:53:31.286Z,12.59
2023-05-11T13:55:45.471Z,12.60
2023-05-11T13:57:58.116Z,12.60
2023-05-11T14:00:12.075Z,12.61
2023-05-11T14:02:25.931Z,12.62
2023-05-11T14:04:38.654Z,12.64
2023-05-11T14:06:51.387Z,12.68
2023-05-11T14:09:04.125Z,12.72
2023-05-11T14:11:16.450Z,12.75
2023-05-11T14:13:29.283Z,12.77
2023-05-11T14:15:41.586Z,12.80
2023-05-11T14:17:54.448Z,12.85
2023-05-11T14:20:07.621Z,12.91
2023-05-11T14:22:20.010Z,12.96
2023-05-11T14:24:32.389Z,13.01
2023-05-11T14:26:44.850Z,13.06
2023-05-11T14:28:57.903Z,13.09
2023-05-11T14:31:10.847Z,13.14
2023-05-11T14:33:23.488Z,13.16
2023-05-11T14:35:39.070Z,13.20
2023-05-11T14:37:52.075Z,13.26
2023-05-11T14:40:04.784Z,13.30
2023-05-11T14:42:17.848Z,13.32
2023-05-11T14:44:31.211Z,13.39
2023-05-11T14:46:43.769Z,13.44
2023-05-11T14:48:57.775Z,13.50
2023-05-11T14:51:10.550Z,13.54
2023-05-11T14:53:23.763Z,13.56
2023-05-11T14:55:36.497Z,13.60
2023-05-11T14:57:48.885Z,13.66
2023-05-11T15:00:01.692Z,13.76
2023-05-11T15:02:14.130Z,13.86
2023-05-11T15:04:27.082Z,13.99
2023-05-11T15:06:40.205Z,14.11
2023-05-11T15:08:53.567Z,14.20
2023-05-11T15:11:06.213Z,14.30
2023-05-11T15:13:20.971Z,14.36
2023-05-11T15:15:35.270Z,14.44
2023-05-11T15:17:47.715Z,14.58
2023-05-11T15:20:00.546Z,14.75
2023-05-11T15:22:13.107Z,14.92
2023-05-11T15:24:25.810Z,15.03
2023-05-11T15:26:38.503Z,15.16
2023-05-11T15:28:50.807Z,15.30
2023-05-11T15:31:03.142Z,15.46
2023-05-11T15:33:17.033Z,15.64
2023-05-11T15:35:29.819Z,15.79
2023-05-11T15:37:42.382Z,15.88
2023-05-11T15:39:55.210Z,15.91
2023-05-11T15:42:09.922Z,15.99
2023-05-11T15:44:22.533Z,16.04
2023-05-11T15:46:37.450Z,16.11
2023-05-11T15:48:50.070Z,16.17
2023-05-11T15:51:03.937Z,16.29
2023-05-11T15:53:16.652Z,16.43
2023-05-11T15:55:31.840Z,16.47
2023-05-11T15:57:44.769Z,16.48
2023-05-11T15:59:57.426Z,16.60
2023-05-11T16:02:10.935Z,16.65
2023-05-11T16:04:23.483Z,16.64
2023-05-11T16:06:36.370Z,16.68
2023-05-11T16:08:49.592Z,16.81
2023-05-11T16:11:01.840Z,16.91
2023-05-11T16:13:15.177Z,17.07
2023-05-11T16:15:28.340Z,17.21
2023-05-11T16:17:43.378Z,17.34
2023-05-11T16:19:56.600Z,17.55
2023-05-11T16:22:09.160Z,17.74
2023-05-11T16:24:21.768Z,17.87
2023-05-11T16:26:34.658Z,18.00
2023-05-11T16:28:47.149Z,18.14
2023-05-11T16:31:00.251Z,18.23
2023-05-11T16:33:15.517Z,18.33
2023-05-11T16:35:27.841Z,18.48
2023-05-11T16:37:40.206Z,18.61
2023-05-11T16:39:53.605Z,18.75
2023-05-11T16:42:08.002Z,18.92
2023-05-11T16:44:20.742Z,19.04
2023-05-11T16:46:33.869Z,19.15
2023-05-11T16:48:47.569Z,19.27
2023-05-11T16:51:00.570Z,19.41
2023-05-11T16:53:14.556Z,19.54
2023-05-11T16:55:28.543Z,19.69
2023-05-11T16:57:41.357Z,19.80
2023-05-11T16:59:54.025Z,19.91
2023-05-11T17:02:09.435Z,20.02
2023-05-11T17:04:22.016Z,20.16
2023-05-11T17:06:38.396Z,20.30
2023-05-11T17:08:51.721Z,20.44
2023-05-11T17:11:04.288Z,20.45
2023-05-11T17:13:16.918Z,20.52
2023-05-11T17:15:29.554Z,20.62
2023-05-11T17:17:43.666Z,20.69
2023-05-11T17:19:56.836Z,20.75
2023-05-11T17:22:10.936Z,20.81
2023-05-11T17:24:24.431Z,20.80
2023-05-11T17:26:47.060Z,20.79
2023-05-11T17:29:01.267Z,20.82
2023-05-11T17:31:18.544Z,20.86
2023-05-11T17:33:31.910Z,20.94
2023-05-11T17:35:45.339Z,21.01
2023-05-11T17:37:57.959Z,21.10
2023-05-11T17:40:12.812Z,21.21
2023-05-11T17:42:26.030Z,21.38
2023-05-11T17:44:38.472Z,21.52
2023-05-11T17:46:53.010Z,21.65
2023-05-11T17:49:06.352Z,21.78
2023-05-11T17:51:19.405Z,21.92
2023-05-11T17:53:32.096Z,22.08
2023-05-11T17:55:46.305Z,22.17
2023-05-11T17:57:58.761Z,22.23
2023-05-11T18:00:13.986Z,22.30
2023-05-11T18:02:26.828Z,22.32
2023-05-11T18:04:39.801Z,22.34
2023-05-11T18:06:53.078Z,22.34
2023-05-11T18:09:06.993Z,22.37
2023-05-11T18:11:20.235Z,22.43
2023-05-11T18:13:33.571Z,22.55
2023-05-11T18:15:46.805Z,22.62
2023-05-11T18:17:59.330Z,22.69
2023-05-11T18:20:14.868Z,22.80
2023-05-11T18:22:31.255Z,22.86
2023-05-11T18:24:45.159Z,22.93
2023-05-11T18:26:57.442Z,23.04
2023-05-11T18:29:10.017Z,23.14
2023-05-11T18:31:22.856Z,23.25
2023-05-11T18:33:36.115Z,23.36
2023-05-11T18:35:49.134Z,23.43
2023-05-11T18:38:05.199Z,23.52
2023-05-11T18:40:19.245Z,23.62
2023-05-11T18:42:31.978Z,23.72
2023-05-11T18:44:44.138Z,23.80
2023-05-11T18:46:56.964Z,23.89
2023-05-11T18:49:12.783Z,23.92
2023-05-11T18:51:27.465Z,23.96
2023-05-11T18:53:40.936Z,23.96
2023-05-11T18:55:53.858Z,24.00
2023-05-11T18:58:08.625Z,23.97
2023-05-11T19:00:21.463Z,24.04
2023-05-11T19:02:34.580Z,24.17
2023-05-11T19:04:47.346Z,24.29
2023-05-11T19:07:01.493Z,24.37
2023-05-11T19:09:15.167Z,24.41
2023-05-11T19:11:28.418Z,24.41
2023-05-11T19:13:43.113Z,24.46
2023-05-11T19:15:56.081Z,24.58
2023-05-11T19:18:08.949Z,24.64
2023-05-11T19:20:21.780Z,24.69
2023-05-11T19:22:34.914Z,24.73
2023-05-11T19:24:48.368Z,24.82
2023-05-11T19:27:07.109Z,24.82
2023-05-11T19:29:23.487Z,24.84
2023-05-11T19:31:36.606Z,24.89
2023-05-11T19:33:49.303Z,25.06
2023-05-11T19:36:01.964Z,25.17
2023-05-11T19:38:15.232Z,25.20
2023-05-11T19:40:45.559Z,25.20
2023-05-11T19:42:59.996Z,25.17
2023-05-11T19:45:14.980Z,25.17
2023-05-11T19:47:28.109Z,25.20
2023-05-11T19:49:41.123Z,25.21
2023-05-11T19:51:55.008Z,25.24
2023-05-11T19:54:08.588Z,25.21
2023-05-11T19:56:22.072Z,25.14
2023-05-11T19:58:34.977Z,25.10
2023-05-11T20:00:47.881Z,25.12
2023-05-11T20:03:00.777Z,25.18
2023-05-11T20:05:15.092Z,25.23
2023-05-11T20:07:29.086Z,25.27
2023-05-11T20:09:42.710Z,25.33
2023-05-11T20:11:54.972Z,25.39
2023-05-11T20:14:07.954Z,25.40
2023-05-11T20:16:20.712Z,25.42
2023-05-11T20:18:36.756Z,25.47
2023-05-11T20:20:49.814Z,25.56
2023-05-11T20:23:06.513Z,25.65
2023-05-11T20:25:19.130Z,25.68
2023-05-11T20:27:33.919Z,25.70
2023-05-11T20:29:46.409Z,25.80
2023-05-11T20:31:59.405Z,25.89
2023-05-11T20:34:12.876Z,25.93
2023-05-11T20:36:25.606Z,25.91
2023-05-11T20:38:38.959Z,25.86
2023-05-11T20:40:51.623Z,25.80
2023-05-11T20:43:04.801Z,25.84
2023-05-11T20:45:18.216Z,25.93
2023-05-11T20:47:32.704Z,26.00
2023-05-11T20:49:45.267Z,26.11
2023-05-11T20:51:57.764Z,26.14
2023-05-11T20:54:10.795Z,26.07
2023-05-11T20:56:23.610Z,26.03
2023-05-11T20:58:38.193Z,25.99
2023-05-11T21:00:50.502Z,25.96
2023-05-11T21:03:03.251Z,26.00
2023-05-11T21:05:15.873Z,26.03
2023-05-11T21:07:29.469Z,25.98
2023-05-11T21:09:42.608Z,25.95
2023-05-11T21:11:54.988Z,25.90
2023-05-11T21:14:07.888Z,25.88
2023-05-11T21:16:20.282Z,25.85
2023-05-11T21:18:35.667Z,25.83
2023-05-11T21:20:48.376Z,25.85
2023-05-11T21:23:01.457Z,25.91
2023-05-11T21:25:15.452Z,25.95
2023-05-11T21:27:28.202Z,25.96
2023-05-11T21:29:42.444Z,26.00
2023-05-11T21:31:56.643Z,26.09
2023-05-11T21:34:09.356Z,26.20
2023-05-11T21:36:23.241Z,26.31
2023-05-11T21:38:36.128Z,26.39
2023-05-11T21:40:53.672Z,26.47
2023-05-11T21:43:07.204Z,26.55
2023-05-11T21:45:21.659Z,26.60
2023-05-11T21:47:34.419Z,26.64
2023-05-11T21:49:48.971Z,26.66
2023-05-11T21:52:02.843Z,26.69
2023-05-11T21:54:15.706Z,26.70
2023-05-11T21:56:28.016Z,26.69
2023-05-11T21:58:40.305Z,26.67
2023-05-11T22:00:53.271Z,26.63
2023-05-11T22:03:05.620Z,26.57
2023-05-11T22:05:19.018Z,26.53
2023-05-11T22:07:31.408Z,26.52
2023-05-11T22:09:44.252Z,26.51
2023-05-11T22:11:56.534Z,26.55
2023-05-11T22:14:08.997Z,26.60
2023-05-11T22:16:21.954Z,26.61
2023-05-11T22:18:34.882Z,26.64
2023-05-11T22:20:47.154Z,26.69
2023-05-11T22:22:59.622Z,26.69
2023-05-11T22:25:14.156Z,26.69
2023-05-11T22:27:27.275Z,26.65
2023-05-11T22:29:40.685Z,26.63
2023-05-11T22:31:53.136Z,26.60
2023-05-11T22:34:05.975Z,26.54
2023-05-11T22:36:18.873Z,26.52
2023-05-11T22:38:31.663Z,26.54
2023-05-11T22:40:44.112Z,26.56
2023-05-11T22:42:56.541Z,26.59
2023-05-11T22:45:09.592Z,26.61
2023-05-11T22:47:22.609Z,26.68
2023-05-11T22:49:35.072Z,26.76
2023-05-11T22:51:47.513Z,26.81
2023-05-11T22:53:59.979Z,26.91
2023-05-11T22:56:12.700Z,26.97
2023-05-11T22:58:26.169Z,26.97
2023-05-11T23:00:39.052Z,26.95
2023-05-11T23:02:51.953Z,26.91
2023-05-11T23:05:04.585Z,26.90
2023-05-11T23:07:17.019Z,26.93
2023-05-11T23:09:30.197Z,26.96
2023-05-11T23:11:42.837Z,27.01
2023-05-11T23:13:55.454Z,26.98
2023-05-11T23:16:08.126Z,26.96
2023-05-11T23:18:20.587Z,26.95
2023-05-11T23:20:33.438Z,26.94
2023-05-11T23:22:46.331Z,26.92
2023-05-11T23:25:01.430Z,26.96
2023-05-11T23:27:14.476Z,27.00
2023-05-11T23:29:28.120Z,27.05
2023-05-11T23:31:41.097Z,27.08
2023-05-11T23:33:54.213Z,27.12
2023-05-11T23:36:06.783Z,27.18
2023-05-11T23:38:19.458Z,27.26
2023-05-11T23:40:32.228Z,27.30
2023-05-11T23:42:44.708Z,27.31
2023-05-11T23:44:57.199Z,27.29
2023-05-11T23:47:10.630Z,27.29
2023-05-11T23:49:23.503Z,27.31
2023-05-11T23:51:36.353Z,27.31
2023-05-11T23:53:50.758Z,27.31
2023-05-11T23:56:03.121Z,27.32
2023-05-11T23:58:15.577Z,27.35
